Time;durP1;ratioP1;P1;durP2;ratioP2;P2;SDS_P1;SDS_P2;PMS_P1;PMS_P2;Temp;Humidity;BMP_temperature;BMP_pressure;BME280_temperature;BME280_humidity;BME280_pressure;Samples;Min_cycle;Max_cycle;Signal;HPM_P1;HPM_P2
2021/12/10 00:00:55;;;;;;;;;;;;;;;1.31;92.30;99216.44;1750118;80;20284;-79
2021/12/10 00:03:24;;;;;;;;;;;;;;;1.38;92.15;99215.48;1725805;80;20184;-79
2021/12/10 00:05:53;;;;;;;;;;;;;;;1.43;92.24;99215.48;1736387;80;20194;-79
2021/12/10 00:08:20;;;;;;;;;;;;;;;1.46;92.15;99201.87;1748086;80;20164;-78
2021/12/10 00:10:47;;;;;;;;;;;;;;;1.52;91.90;99193.58;1738850;80;21122;-77
2021/12/10 00:13:14;;;;;;;;;;;;;;;1.54;91.88;99205.98;1742046;80;20181;-78
2021/12/10 00:15:40;;;;;;;;;;;;;;;1.56;91.69;99201.02;1742701;80;20245;-78
2021/12/10 00:18:08;;;;;;;;;;;;;;;1.54;91.91;99186.47;1741930;80;20186;-77
2021/12/10 00:20:35;;;;;;;;;;;;;;;1.58;91.72;99193.09;1750766;80;20203;-79
2021/12/10 00:23:04;;;;;;;;;;;;;;;1.60;91.54;99190.73;1738368;80;21907;-80
2021/12/10 00:25:36;;;;;;;;;;;;;;;1.57;92.04;99186.22;1738812;80;20167;-78
2021/12/10 00:28:12;;;;;;;;;;;;;;;1.54;92.11;99182.56;1740051;80;20184;-78
2021/12/10 00:30:33;;;;;;;;;;;;;;;1.53;92.23;99177.03;1736273;80;20161;-78
2021/12/10 00:33:02;;;;;;;;;;;;;;;1.56;92.09;99171.58;1742438;80;20238;-77
2021/12/10 00:35:29;;;;;;;;;;;;;;;1.54;92.16;99152.64;1738623;80;21121;-78
2021/12/10 00:37:55;;;;;;;;;;;;;;;1.57;92.26;99148.49;1740056;80;20167;-78
2021/12/10 00:40:23;;;;;;;;;;;;;;;1.53;92.52;99144.02;1745747;80;20557;-80
2021/12/10 00:42:48;;;;;;;;;;;;;;;1.52;92.48;99141.55;1741096;80;20187;-78
2021/12/10 00:45:15;;;;;;;;;;;;;;;1.39;93.16;99143.83;1736214;80;20170;-80
2021/12/10 00:47:41;;;;;;;;;;;;;;;1.51;93.13;99138.58;1745715;80;21012;-79
2021/12/10 00:50:09;;;;;;;;;;;;;;;1.56;93.04;99130.77;1740822;80;20197;-79
2021/12/10 00:52:35;;;;;;;;;;;;;;;1.56;93.13;99131.25;1748083;80;20154;-79
2021/12/10 00:55:00;;;;;;;;;;;;;;;1.51;93.35;99127.72;1747371;80;20583;-78
2021/12/10 00:57:26;;;;;;;;;;;;;;;1.58;93.15;99123.65;1740122;80;20170;-78
2021/12/10 00:59:51;;;;;;;;;;;;;;;1.59;93.22;99124.02;1741729;80;21156;-79
2021/12/10 01:02:19;;;;;;;;;;;;;;;1.58;93.52;99124.14;1749459;80;20134;-77
2021/12/10 01:04:47;;;;;;;;;;;;;;;1.53;93.81;99104.99;1740193;80;20147;-77
2021/12/10 01:07:14;;;;;;;;;;;;;;;1.59;93.75;99107.58;1731717;80;20681;-77
2021/12/10 01:09:43;;;;;;;;;;;;;;;1.57;93.88;99100.36;1745225;80;20564;-81
2021/12/10 01:12:15;;;;;;;;;;;;;;;1.59;94.02;99102.37;1738050;80;21951;-80
2021/12/10 01:15:22;;;;;;;;;;;;;;;1.60;94.10;99110.52;1736350;80;20160;-79
2021/12/10 01:26:08;;;;;;;;;;;;;;;1.64;94.18;99087.20;1738459;80;20133;-80
2021/12/10 01:28:22;;;;;;;;;;;;;;;1.65;94.45;99090.17;1740827;81;20109;-80
2021/12/10 01:30:48;;;;;;;;;;;;;;;1.65;94.49;99081.52;1746238;81;20161;-80
2021/12/10 01:33:16;;;;;;;;;;;;;;;1.52;95.15;99084.30;1747428;81;20474;-77
2021/12/10 01:35:48;;;;;;;;;;;;;;;1.64;94.71;99089.00;1742835;80;20145;-79
2021/12/10 01:38:14;;;;;;;;;;;;;;;1.64;94.75;99097.62;1740058;81;21285;-77
2021/12/10 01:40:43;;;;;;;;;;;;;;;1.66;94.70;99073.59;1744204;81;20406;-79
2021/12/10 01:43:22;;;;;;;;;;;;;;;1.72;94.59;99073.09;1741410;81;20154;-79
2021/12/10 01:45:47;;;;;;;;;;;;;;;1.74;94.49;99069.90;1741646;80;20121;-80
2021/12/10 01:48:17;;;;;;;;;;;;;;;1.78;94.78;99071.28;1746247;81;20143;-81
2021/12/10 01:50:44;;;;;;;;;;;;;;;1.81;94.57;99068.09;1741759;81;21129;-80
2021/12/10 01:53:12;;;;;;;;;;;;;;;1.78;94.79;99072.58;1743883;80;20321;-79
2021/12/10 01:55:40;;;;;;;;;;;;;;;1.89;94.69;99071.70;1745225;80;20170;-79
2021/12/10 01:58:07;;;;;;;;;;;;;;;1.77;94.88;99068.34;1735887;81;20198;-80
2021/12/10 02:00:34;;;;;;;;;;;;;;;1.92;94.57;99068.02;1743686;81;20169;-79
2021/12/10 02:03:00;;;;;;;;;;;;;;;1.95;94.13;99062.56;1740502;81;22010;-79
2021/12/10 02:05:25;;;;;;;;;;;;;;;1.91;94.41;99058.55;1737598;81;20277;-79
2021/12/10 02:07:53;;;;;;;;;;;;;;;1.87;94.72;99055.39;1743048;81;20194;-78
2021/12/10 02:10:20;;;;;;;;;;;;;;;1.90;94.72;99062.13;1744140;81;20197;-78
2021/12/10 02:12:46;;;;;;;;;;;;;;;1.69;95.54;99065.53;1728609;81;20248;-78
2021/12/10 02:15:13;;;;;;;;;;;;;;;1.72;95.64;99058.77;1736572;81;21883;-78
2021/12/10 02:17:42;;;;;;;;;;;;;;;1.75;95.51;99044.20;1742597;81;20134;-78
2021/12/10 02:20:10;;;;;;;;;;;;;;;1.85;95.18;99036.93;1723106;81;20202;-78
2021/12/10 02:22:36;;;;;;;;;;;;;;;1.86;95.40;99035.99;1739839;81;20169;-78
2021/12/10 02:25:03;;;;;;;;;;;;;;;1.88;95.17;99031.02;1743457;81;20798;-77
2021/12/10 02:27:29;;;;;;;;;;;;;;;1.96;94.80;99026.47;1734464;80;21087;-79
2021/12/10 02:29:55;;;;;;;;;;;;;;;2.02;94.70;99025.95;1743056;81;20222;-78
2021/12/10 02:32:22;;;;;;;;;;;;;;;1.97;94.72;99018.53;1748898;81;20199;-78
2021/12/10 02:34:49;;;;;;;;;;;;;;;2.02;94.62;99012.94;1744075;81;20152;-78
2021/12/10 02:37:15;;;;;;;;;;;;;;;2.05;94.51;99003.56;1737957;81;20155;-78
2021/12/10 02:39:40;;;;;;;;;;;;;;;2.03;94.52;98996.83;1738962;81;21133;-79
2021/12/10 02:42:06;;;;;;;;;;;;;;;1.98;94.58;98978.98;1745500;81;20463;-78
2021/12/10 02:44:32;;;;;;;;;;;;;;;1.96;94.71;98988.72;1746459;81;20191;-78
2021/12/10 02:46:58;;;;;;;;;;;;;;;1.99;94.69;98993.67;1751201;81;20739;-78
2021/12/10 02:49:24;;;;;;;;;;;;;;;1.84;95.43;98984.55;1733250;81;20185;-78
2021/12/10 02:51:49;;;;;;;;;;;;;;;1.84;95.75;99015.78;1743510;81;23067;-78
2021/12/10 02:54:21;;;;;;;;;;;;;;;1.84;95.99;99013.17;1742575;81;20734;-79
2021/12/10 02:56:44;;;;;;;;;;;;;;;1.86;96.10;99019.88;1742376;81;20137;-79
2021/12/10 02:59:10;;;;;;;;;;;;;;;1.81;96.31;99013.44;1748252;81;20183;-79
2021/12/10 03:01:41;;;;;;;;;;;;;;;1.79;96.52;99016.98;1735808;81;20140;-79
2021/12/10 03:04:08;;;;;;;;;;;;;;;1.77;96.99;99017.59;1739999;80;22382;-78
2021/12/10 03:06:34;;;;;;;;;;;;;;;1.83;96.83;99010.22;1744095;81;20126;-79
2021/12/10 03:08:59;;;;;;;;;;;;;;;1.77;97.14;99011.09;1737433;81;20188;-78
2021/12/10 03:11:28;;;;;;;;;;;;;;;1.78;97.40;99004.91;1748645;80;20165;-78
2021/12/10 03:13:53;;;;;;;;;;;;;;;1.86;96.98;99006.87;1756324;80;20209;-78
2021/12/10 03:16:19;;;;;;;;;;;;;;;1.71;97.86;99006.39;1731953;81;20998;-78
2021/12/10 03:18:45;;;;;;;;;;;;;;;1.75;98.11;98997.36;1751376;81;20461;-80
2021/12/10 03:21:11;;;;;;;;;;;;;;;1.79;97.94;98990.95;1749594;81;20192;-78
2021/12/10 03:23:42;;;;;;;;;;;;;;;1.84;97.83;98987.15;1738784;81;20280;-80
2021/12/10 03:26:05;;;;;;;;;;;;;;;1.89;97.51;98977.16;1746802;80;20173;-80
2021/12/10 03:28:30;;;;;;;;;;;;;;;1.86;97.97;98973.52;1758137;80;21156;-78
2021/12/10 03:30:56;;;;;;;;;;;;;;;1.87;97.84;98973.88;1745540;80;20243;-78
2021/12/10 03:33:23;;;;;;;;;;;;;;;1.96;97.61;98967.89;1750588;80;20149;-80
2021/12/10 03:35:48;;;;;;;;;;;;;;;1.94;97.81;98959.36;1751341;80;20176;-78
2021/12/10 03:38:18;;;;;;;;;;;;;;;2.00;97.75;98962.75;1755725;80;20244;-80
2021/12/10 03:40:44;;;;;;;;;;;;;;;2.03;97.57;98962.48;1754841;80;21063;-80
2021/12/10 03:43:09;;;;;;;;;;;;;;;2.06;97.62;98962.23;1748398;80;20284;-80
2021/12/10 03:45:38;;;;;;;;;;;;;;;1.98;97.94;98959.46;1758936;80;20201;-80
2021/12/10 03:48:08;;;;;;;;;;;;;;;2.08;97.88;98959.03;1749388;80;20173;-80
2021/12/10 03:50:33;;;;;;;;;;;;;;;2.15;97.62;98959.32;1750159;80;20434;-80
2021/12/10 03:53:00;;;;;;;;;;;;;;;2.22;97.42;98949.19;1751085;80;21203;-80
2021/12/10 03:55:26;;;;;;;;;;;;;;;2.27;97.17;98949.61;1745010;80;20478;-80
2021/12/10 03:57:52;;;;;;;;;;;;;;;2.26;97.02;98947.98;1760707;80;20158;-80
2021/12/10 04:00:19;;;;;;;;;;;;;;;2.15;97.52;98949.72;1758599;80;20242;-80
2021/12/10 04:02:45;;;;;;;;;;;;;;;2.05;97.67;98951.48;1748437;80;20817;-80
2021/12/10 04:05:11;;;;;;;;;;;;;;;2.14;97.56;98957.66;1750742;80;21211;-80
2021/12/10 04:07:36;;;;;;;;;;;;;;;2.08;97.86;98952.98;1746579;80;20134;-80
2021/12/10 04:10:04;;;;;;;;;;;;;;;1.97;98.33;98955.20;1759632;80;20165;-81
2021/12/10 04:12:30;;;;;;;;;;;;;;;2.06;98.53;98948.39;1746344;80;20197;-80
2021/12/10 04:14:56;;;;;;;;;;;;;;;1.99;98.86;98944.20;1747515;80;20140;-81
2021/12/10 04:17:22;;;;;;;;;;;;;;;1.98;99.21;98934.73;1756821;80;21092;-79
2021/12/10 04:19:50;;;;;;;;;;;;;;;1.98;99.20;98926.92;1749843;80;20940;-80
2021/12/10 04:22:16;;;;;;;;;;;;;;;2.19;98.58;98931.23;1750204;80;20507;-80
2021/12/10 04:24:41;;;;;;;;;;;;;;;2.20;98.63;98926.37;1748646;80;20206;-81
2021/12/10 04:27:08;;;;;;;;;;;;;;;2.20;98.74;98926.37;1752012;80;20156;-79
2021/12/10 04:29:34;;;;;;;;;;;;;;;2.23;98.84;98920.90;1744850;80;21098;-80
2021/12/10 04:32:00;;;;;;;;;;;;;;;2.21;98.76;98928.03;1750381;80;20470;-81
2021/12/10 04:34:25;;;;;;;;;;;;;;;2.26;98.86;98924.54;1751549;80;20138;-81
2021/12/10 04:36:52;;;;;;;;;;;;;;;2.25;98.94;98922.88;1749997;80;20195;-82
2021/12/10 04:39:17;;;;;;;;;;;;;;;2.18;99.23;98929.59;1748977;80;20480;-78
2021/12/10 04:41:43;;;;;;;;;;;;;;;2.22;99.56;98918.78;1751676;80;21150;-79
2021/12/10 04:44:09;;;;;;;;;;;;;;;2.24;99.32;98922.56;1745627;80;20154;-79
2021/12/10 04:46:34;;;;;;;;;;;;;;;2.24;99.79;98924.67;1745266;80;20148;-82
2021/12/10 04:49:03;;;;;;;;;;;;;;;2.28;99.77;98925.22;1747909;80;20122;-78
2021/12/10 04:51:31;;;;;;;;;;;;;;;2.22;100.00;98917.94;1741297;80;20600;-79
2021/12/10 04:53:57;;;;;;;;;;;;;;;2.17;100.00;98915.73;1749387;80;22497;-79
2021/12/10 04:56:23;;;;;;;;;;;;;;;2.31;100.00;98908.02;1740089;80;20187;-78
2021/12/10 04:58:49;;;;;;;;;;;;;;;2.31;100.00;98904.93;1750780;80;20290;-78
2021/12/10 05:01:15;;;;;;;;;;;;;;;2.33;100.00;98904.80;1745576;80;20101;-77
2021/12/10 05:03:40;;;;;;;;;;;;;;;2.28;100.00;98905.20;1748852;80;20535;-79
2021/12/10 05:06:06;;;;;;;;;;;;;;;2.31;100.00;98906.23;1756420;80;21074;-78
2021/12/10 05:08:32;;;;;;;;;;;;;;;2.32;100.00;98903.17;1737471;80;20224;-79
2021/12/10 05:10:58;;;;;;;;;;;;;;;2.38;100.00;98907.84;1749916;80;20188;-79
2021/12/10 05:13:24;;;;;;;;;;;;;;;2.41;100.00;98901.06;1744274;80;20141;-78
2021/12/10 05:15:57;;;;;;;;;;;;;;;2.36;100.00;98895.41;1721114;80;20198;-78
2021/12/10 05:18:17;;;;;;;;;;;;;;;2.48;100.00;98896.94;1739143;80;20431;-79
2021/12/10 05:20:48;;;;;;;;;;;;;;;2.56;99.88;98891.53;1739584;81;20136;-79
2021/12/10 05:23:10;;;;;;;;;;;;;;;2.49;99.82;98896.48;1729929;81;20122;-78
2021/12/10 05:25:36;;;;;;;;;;;;;;;2.63;99.97;98888.25;1736068;80;20719;-77
2021/12/10 05:28:01;;;;;;;;;;;;;;;2.78;99.09;98880.86;1739998;80;20120;-78
2021/12/10 05:30:29;;;;;;;;;;;;;;;2.86;98.53;98878.86;1742429;80;21087;-77
2021/12/10 05:32:55;;;;;;;;;;;;;;;2.73;98.98;98877.82;1735544;80;20187;-77
2021/12/10 05:35:21;;;;;;;;;;;;;;;2.76;98.75;98881.45;1748524;80;20284;-77
2021/12/10 05:37:46;;;;;;;;;;;;;;;2.79;98.65;98881.18;1751600;80;20206;-78
2021/12/10 05:40:13;;;;;;;;;;;;;;;2.82;98.57;98877.48;1754998;80;20135;-78
2021/12/10 05:42:43;;;;;;;;;;;;;;;2.80;98.38;98886.75;1748511;80;21116;-78
2021/12/10 05:45:09;;;;;;;;;;;;;;;2.77;98.43;98888.33;1747865;80;20124;-81
2021/12/10 05:47:34;;;;;;;;;;;;;;;2.84;98.58;98883.38;1745368;80;20140;-78
2021/12/10 05:50:00;;;;;;;;;;;;;;;2.83;98.46;98882.56;1751471;80;20730;-79
2021/12/10 05:52:26;;;;;;;;;;;;;;;2.85;98.62;98896.27;1739985;80;20138;-80
2021/12/10 05:54:52;;;;;;;;;;;;;;;2.81;98.43;98896.22;1743996;80;21023;-80
2021/12/10 05:57:18;;;;;;;;;;;;;;;2.84;98.33;98895.95;1731136;80;20175;-80
2021/12/10 05:59:44;;;;;;;;;;;;;;;2.85;98.41;98891.06;1756510;80;20138;-80
2021/12/10 06:02:10;;;;;;;;;;;;;;;2.87;98.41;98891.77;1731253;80;20177;-80
2021/12/10 06:04:35;;;;;;;;;;;;;;;2.93;98.17;98894.77;1754387;80;20181;-78
2021/12/10 06:07:01;;;;;;;;;;;;;;;2.92;98.29;98908.30;1738036;80;21156;-79
2021/12/10 06:09:27;;;;;;;;;;;;;;;2.82;98.46;98903.55;1733475;80;20271;-80
2021/12/10 06:11:52;;;;;;;;;;;;;;;2.82;98.51;98897.84;1740660;80;20705;-78
2021/12/10 06:14:18;;;;;;;;;;;;;;;2.91;98.28;98913.66;1746107;80;20269;-78
2021/12/10 06:16:44;;;;;;;;;;;;;;;2.90;98.18;98912.00;1744402;80;20769;-79
2021/12/10 06:19:09;;;;;;;;;;;;;;;2.92;98.34;98912.67;1749742;80;21064;-79
2021/12/10 06:21:35;;;;;;;;;;;;;;;2.96;98.29;98901.83;1742800;80;20546;-83
2021/12/10 06:24:01;;;;;;;;;;;;;;;3.06;98.04;98912.24;1741584;80;20195;-78
2021/12/10 06:26:27;;;;;;;;;;;;;;;3.09;97.93;98910.66;1745080;80;20165;-79
2021/12/10 06:28:52;;;;;;;;;;;;;;;3.01;97.92;98903.53;1751436;80;20202;-79
2021/12/10 06:31:19;;;;;;;;;;;;;;;3.01;97.79;98902.72;1750925;80;21167;-78
2021/12/10 06:33:45;;;;;;;;;;;;;;;3.04;98.04;98907.66;1748363;80;20206;-81
2021/12/10 06:36:11;;;;;;;;;;;;;;;3.07;97.70;98908.68;1740816;80;20146;-79
2021/12/10 06:38:36;;;;;;;;;;;;;;;3.17;97.77;98901.69;1741527;80;21231;-77
2021/12/10 06:41:03;;;;;;;;;;;;;;;3.22;97.43;98896.86;1733971;80;20173;-78
2021/12/10 06:43:28;;;;;;;;;;;;;;;3.21;97.26;98908.25;1744114;80;21880;-76
2021/12/10 06:45:54;;;;;;;;;;;;;;;3.22;97.26;98912.52;1735990;80;20156;-75
2021/12/10 06:48:24;;;;;;;;;;;;;;;3.28;97.06;98919.42;1740835;80;20163;-79
2021/12/10 06:50:52;;;;;;;;;;;;;;;3.26;97.04;98917.45;1742943;80;20191;-79
2021/12/10 06:53:19;;;;;;;;;;;;;;;3.34;96.81;98918.87;1737661;80;20231;-80
2021/12/10 06:55:45;;;;;;;;;;;;;;;3.37;96.62;98921.20;1714257;80;20804;-79
2021/12/10 06:58:11;;;;;;;;;;;;;;;3.36;96.41;98918.27;1751523;80;20191;-81
2021/12/10 07:00:43;;;;;;;;;;;;;;;3.38;96.48;98921.06;1747421;80;20219;-83
2021/12/10 07:03:11;;;;;;;;;;;;;;;3.40;96.79;98928.75;1743432;80;20154;-82
2021/12/10 07:05:37;;;;;;;;;;;;;;;3.53;96.47;98922.75;1741317;80;20268;-83
2021/12/10 07:08:03;;;;;;;;;;;;;;;3.63;96.10;98915.38;1740306;80;21258;-83
2021/12/10 07:10:29;;;;;;;;;;;;;;;3.66;95.69;98905.95;1741411;80;20211;-85
2021/12/10 07:12:54;;;;;;;;;;;;;;;3.76;95.53;98913.28;1747877;80;20913;-84
2021/12/10 07:15:20;;;;;;;;;;;;;;;3.84;95.31;98914.69;1751061;80;20105;-83
2021/12/10 07:17:47;;;;;;;;;;;;;;;3.82;95.08;98924.44;1750322;80;20746;-82
2021/12/10 07:20:14;;;;;;;;;;;;;;;3.81;94.58;98925.88;1733054;80;21016;-81
2021/12/10 07:22:42;;;;;;;;;;;;;;;3.82;94.44;98919.21;1729132;80;20187;-78
2021/12/10 07:25:09;;;;;;;;;;;;;;;3.81;94.59;98914.97;1735160;80;20164;-83
2021/12/10 07:27:40;;;;;;;;;;;;;;;3.75;94.23;98912.94;1703812;82;20142;-82
2021/12/10 07:30:08;;;;;;;;;;;;;;;3.70;94.24;98918.58;1706439;82;20183;-84
2021/12/10 07:32:36;;;;;;;;;;;;;;;3.73;94.27;98920.91;1685201;82;21155;-82
2021/12/10 07:35:05;;;;;;;;;;;;;;;3.72;94.28;98923.17;1669259;82;20215;-81
2021/12/10 07:37:33;;;;;;;;;;;;;;;3.75;94.20;98928.60;1706966;82;20187;-88
2021/12/10 07:39:58;;;;;;;;;;;;;;;3.69;94.20;98929.17;1706711;82;20206;-85
2021/12/10 07:42:26;;;;;;;;;;;;;;;3.75;94.23;98926.80;1710687;82;20113;-84
2021/12/10 07:44:56;;;;;;;;;;;;;;;3.75;94.25;98925.50;1703696;82;20900;-84
2021/12/10 07:47:22;;;;;;;;;;;;;;;3.72;94.18;98931.50;1714130;82;20130;-82
2021/12/10 07:49:53;;;;;;;;;;;;;;;3.72;94.35;98926.27;1705622;82;20223;-79
2021/12/10 07:52:24;;;;;;;;;;;;;;;3.74;94.27;98929.56;1715278;82;20140;-81
2021/12/10 07:54:52;;;;;;;;;;;;;;;3.77;94.40;98929.27;1711318;82;20148;-84
2021/12/10 07:57:19;;;;;;;;;;;;;;;3.77;94.45;98927.97;1705939;82;21207;-84
2021/12/10 07:59:48;;;;;;;;;;;;;;;3.72;94.44;98926.27;1716171;82;20154;-79
2021/12/10 08:02:20;;;;;;;;;;;;;;;3.78;94.37;98931.74;1710721;82;20135;-77
2021/12/10 08:04:50;;;;;;;;;;;;;;;3.77;94.26;98934.50;1702933;82;20901;-80
2021/12/10 08:07:15;;;;;;;;;;;;;;;3.78;94.23;98925.70;1685482;83;20187;-82
2021/12/10 08:09:43;;;;;;;;;;;;;;;3.81;94.21;98922.81;1711301;82;20601;-81
2021/12/10 08:12:10;;;;;;;;;;;;;;;3.77;94.42;98933.19;1706531;82;20123;-81
2021/12/10 08:14:36;;;;;;;;;;;;;;;3.71;94.57;98933.76;1713680;81;20167;-81
2021/12/10 08:17:05;;;;;;;;;;;;;;;3.75;94.57;98937.74;1713844;82;20122;-81
2021/12/10 08:19:30;;;;;;;;;;;;;;;3.78;94.63;98936.96;1716675;82;20218;-83
2021/12/10 08:21:58;;;;;;;;;;;;;;;3.74;94.75;98936.08;1721052;81;21057;-79
2021/12/10 08:24:32;;;;;;;;;;;;;;;3.77;94.77;98927.47;1716767;82;20605;-79
2021/12/10 08:27:00;;;;;;;;;;;;;;;3.81;94.65;98933.72;1696135;80;20170;-79
2021/12/10 08:29:29;;;;;;;;;;;;;;;3.82;94.44;98925.73;1743758;80;20233;-80
2021/12/10 08:31:59;;;;;;;;;;;;;;;3.70;95.13;98926.42;1737086;81;20140;-79
2021/12/10 08:34:26;;;;;;;;;;;;;;;3.68;95.47;98925.75;1746168;81;21895;-82
2021/12/10 08:36:55;;;;;;;;;;;;;;;3.65;95.54;98926.49;1734785;81;20681;-81
2021/12/10 08:39:26;;;;;;;;;;;;;;;3.56;95.58;98932.91;1739270;80;20510;-81
2021/12/10 08:41:56;;;;;;;;;;;;;;;3.52;95.85;98934.15;1743018;81;20090;-80
2021/12/10 08:44:21;;;;;;;;;;;;;;;3.76;94.96;98942.01;1741157;80;20217;-79
2021/12/10 08:46:49;;;;;;;;;;;;;;;3.84;94.81;98942.11;1739975;81;21067;-80
2021/12/10 08:49:14;;;;;;;;;;;;;;;3.88;94.71;98948.67;1742815;81;20197;-80
2021/12/10 08:51:42;;;;;;;;;;;;;;;3.82;94.59;98946.63;1739080;81;20181;-79
2021/12/10 08:54:08;;;;;;;;;;;;;;;3.61;95.65;98937.70;1737787;81;20908;-80
2021/12/10 08:56:35;;;;;;;;;;;;;;;3.86;94.83;98936.25;1733781;81;20220;-79
2021/12/10 08:59:01;;;;;;;;;;;;;;;3.93;94.75;98939.95;1742417;80;21081;-81
2021/12/10 09:01:33;;;;;;;;;;;;;;;3.94;94.45;98948.10;1746650;80;20179;-79
2021/12/10 09:03:59;;;;;;;;;;;;;;;3.87;94.73;98952.73;1746877;81;20144;-83
2021/12/10 09:06:26;;;;;;;;;;;;;;;3.93;94.82;98949.09;1739556;81;20202;-80
2021/12/10 09:08:52;;;;;;;;;;;;;;;3.99;94.85;98944.25;1738845;81;20170;-78
2021/12/10 09:11:17;;;;;;;;;;;;;;;4.00;94.78;98950.63;1743371;81;21072;-82
2021/12/10 09:13:43;;;;;;;;;;;;;;;4.05;94.44;98949.70;1740866;81;20121;-81
2021/12/10 09:16:19;;;;;;;;;;;;;;;4.02;94.16;98951.30;1741467;81;20225;-81
2021/12/10 09:18:41;;;;;;;;;;;;;;;4.11;93.87;98943.09;1748003;81;20518;-81
2021/12/10 09:21:08;;;;;;;;;;;;;;;4.13;93.61;98939.84;1742505;81;20152;-83
2021/12/10 09:23:34;;;;;;;;;;;;;;;4.14;93.66;98928.44;1743336;81;21115;-81
2021/12/10 09:26:01;;;;;;;;;;;;;;;4.07;93.53;98925.59;1748794;81;20120;-80
2021/12/10 09:28:27;;;;;;;;;;;;;;;4.08;93.85;98929.02;1747096;81;20136;-81
2021/12/10 09:30:54;;;;;;;;;;;;;;;3.97;94.40;98933.94;1730426;81;20521;-83
2021/12/10 09:33:20;;;;;;;;;;;;;;;3.92;94.63;98930.45;1734222;81;20536;-82
2021/12/10 09:35:46;;;;;;;;;;;;;;;4.01;94.38;98936.62;1737612;81;21091;-81
2021/12/10 09:38:12;;;;;;;;;;;;;;;4.00;94.27;98935.45;1747441;80;20478;-81
2021/12/10 09:40:41;;;;;;;;;;;;;;;4.13;93.55;98942.45;1742456;80;20254;-81
2021/12/10 09:43:07;;;;;;;;;;;;;;;4.19;93.49;98954.95;1741082;80;20237;-82
2021/12/10 09:45:34;;;;;;;;;;;;;;;4.04;94.26;98955.08;1743729;81;20202;-80
2021/12/10 09:48:00;;;;;;;;;;;;;;;4.02;94.42;98947.88;1741482;81;20969;-82
2021/12/10 09:50:27;;;;;;;;;;;;;;;4.21;93.45;98949.11;1742879;81;20185;-80
2021/12/10 09:52:54;;;;;;;;;;;;;;;4.21;93.34;98943.89;1739865;81;20140;-82
2021/12/10 09:55:20;;;;;;;;;;;;;;;4.18;93.82;98942.87;1742094;81;20232;-80
2021/12/10 09:57:48;;;;;;;;;;;;;;;4.21;93.65;98936.51;1735829;81;21055;-80
2021/12/10 10:00:17;;;;;;;;;;;;;;;4.18;93.82;98944.17;1738150;81;21066;-81
2021/12/10 10:02:43;;;;;;;;;;;;;;;4.16;93.71;98943.47;1746789;81;20146;-82
2021/12/10 10:05:09;;;;;;;;;;;;;;;4.19;93.60;98936.66;1743880;81;20590;-80
2021/12/10 10:07:35;;;;;;;;;;;;;;;4.13;93.84;98950.30;1746767;80;20380;-84
2021/12/10 10:10:07;;;;;;;;;;;;;;;4.21;93.78;98947.80;1740932;81;20184;-82
2021/12/10 10:12:35;;;;;;;;;;;;;;;4.24;93.57;98944.91;1745943;81;21166;-80
2021/12/10 10:15:03;;;;;;;;;;;;;;;4.27;93.54;98938.08;1740194;81;20185;-80
2021/12/10 10:17:29;;;;;;;;;;;;;;;4.18;93.46;98924.58;1738839;81;20222;-80
2021/12/10 10:19:54;;;;;;;;;;;;;;;4.25;93.45;98922.20;1743368;81;20680;-80
2021/12/10 10:22:23;;;;;;;;;;;;;;;4.25;93.52;98932.65;1733958;80;20217;-79
2021/12/10 10:24:49;;;;;;;;;;;;;;;4.20;93.68;98927.05;1739571;81;21138;-81
2021/12/10 10:27:17;;;;;;;;;;;;;;;4.27;93.58;98917.17;1743360;80;20815;-79
2021/12/10 10:29:46;;;;;;;;;;;;;;;4.29;93.63;98917.84;1740516;80;20162;-80
2021/12/10 10:32:14;;;;;;;;;;;;;;;4.30;93.63;98912.96;1742047;80;20097;-81
2021/12/10 10:34:43;;;;;;;;;;;;;;;4.37;93.34;98920.22;1736945;80;20230;-82
2021/12/10 10:37:09;;;;;;;;;;;;;;;4.27;93.66;98927.63;1741479;80;20827;-80
2021/12/10 10:39:36;;;;;;;;;;;;;;;4.31;93.69;98938.11;1740206;80;20209;-78
2021/12/10 10:42:04;;;;;;;;;;;;;;;4.37;93.83;98929.36;1742904;80;20220;-79
2021/12/10 10:44:30;;;;;;;;;;;;;;;4.31;93.48;98927.65;1730650;80;21414;-79
2021/12/10 10:46:57;;;;;;;;;;;;;;;4.40;93.60;98931.69;1713308;81;36460;-78
2021/12/10 10:49:43;;;;;;;;;;;;;;;4.38;93.25;98929.69;1740133;80;21980;-82
2021/12/10 10:52:19;;;;;;;;;;;;;;;4.36;93.84;98929.02;1739812;80;20160;-82
2021/12/10 10:54:45;;;;;;;;;;;;;;;4.44;93.35;98927.33;1740543;80;20185;-79
2021/12/10 10:57:14;;;;;;;;;;;;;;;4.52;93.17;98929.17;1755050;80;20236;-81
2021/12/10 10:59:40;;;;;;;;;;;;;;;4.51;92.78;98925.43;1752442;80;20263;-80
2021/12/10 11:02:08;;;;;;;;;;;;;;;4.56;92.90;98920.08;1755754;80;21104;-79
2021/12/10 11:04:38;;;;;;;;;;;;;;;4.58;92.78;98927.27;1734095;80;20153;-83
2021/12/10 11:07:13;;;;;;;;;;;;;;;4.65;92.76;98920.49;1744084;80;20890;-79
2021/12/10 11:09:48;;;;;;;;;;;;;;;4.68;92.23;98928.05;1739221;80;20816;-79
2021/12/10 11:12:20;;;;;;;;;;;;;;;4.61;92.14;98923.06;1721115;80;20136;-78
2021/12/10 11:14:49;;;;;;;;;;;;;;;4.67;92.03;98926.88;1714882;81;21187;-81
2021/12/10 11:17:28;;;;;;;;;;;;;;;4.70;91.97;98927.08;1697602;81;20173;-82
2021/12/10 11:20:18;;;;;;;;;;;;;;;4.76;91.87;98920.77;1717448;80;20205;-80
2021/12/10 11:22:49;;;;;;;;;;;;;;;4.67;91.76;98914.62;1741445;80;20217;-77
2021/12/10 11:25:18;;;;;;;;;;;;;;;4.62;91.59;98908.22;1734630;80;20220;-81
2021/12/10 11:27:44;;;;;;;;;;;;;;;4.60;91.81;98906.21;1739891;80;21075;-79
2021/12/10 11:30:14;;;;;;;;;;;;;;;4.59;91.80;98910.63;1734968;80;20282;-81
2021/12/10 11:32:54;;;;;;;;;;;;;;;4.62;91.92;98916.88;1738892;80;20186;-77
2021/12/10 11:35:22;;;;;;;;;;;;;;;4.60;91.81;98918.82;1736266;80;20117;-81
2021/12/10 11:38:09;;;;;;;;;;;;;;;4.53;91.88;98917.76;1732975;80;20203;-76
2021/12/10 11:40:51;;;;;;;;;;;;;;;4.57;91.83;98908.66;1740385;80;21114;-77
2021/12/10 11:43:44;;;;;;;;;;;;;;;4.58;91.84;98908.98;1730489;81;20238;-83
2021/12/10 11:49:14;;;;;;;;;;;;;;;4.58;91.90;98916.81;1738383;80;20140;-77
2021/12/10 11:51:49;;;;;;;;;;;;;;;4.63;91.82;98926.37;1757529;80;20188;-77
2021/12/10 11:54:30;;;;;;;;;;;;;;;4.62;91.81;98927.33;1735093;80;21276;-82
2021/12/10 11:57:05;;;;;;;;;;;;;;;4.52;91.89;98939.63;1739210;80;20128;-78
2021/12/10 11:59:36;;;;;;;;;;;;;;;4.59;91.83;98935.47;1732053;80;20452;-78
2021/12/10 12:02:11;;;;;;;;;;;;;;;4.53;91.86;98936.55;1737401;80;20950;-78
2021/12/10 12:04:49;;;;;;;;;;;;;;;4.44;91.82;98942.16;1739080;80;20387;-80
2021/12/10 12:07:30;;;;;;;;;;;;;;;4.46;91.84;98932.41;1740001;80;21092;-79
2021/12/10 12:10:20;;;;;;;;;;;;;;;4.41;91.96;98929.39;1739088;80;20515;-79
2021/12/10 12:12:49;;;;;;;;;;;;;;;4.41;92.27;98935.92;1741228;80;20696;-81
2021/12/10 12:15:18;;;;;;;;;;;;;;;4.36;92.50;98934.24;1738307;80;20218;-77
2021/12/10 12:17:50;;;;;;;;;;;;;;;4.41;92.53;98938.07;1740954;80;20484;-81
2021/12/10 12:20:31;;;;;;;;;;;;;;;4.49;92.72;98933.42;1733054;80;21123;-79
2021/12/10 12:26:06;;;;;;;;;;;;;;;4.51;92.41;98942.42;1743194;80;20186;-77
2021/12/10 12:28:32;;;;;;;;;;;;;;;4.57;92.13;98950.95;1736461;80;20270;-77
2021/12/10 12:31:04;;;;;;;;;;;;;;;4.49;91.70;98942.56;1763821;80;20580;-77
2021/12/10 12:33:36;;;;;;;;;;;;;;;4.40;92.38;98944.75;1804704;78;20993;-77
2021/12/10 12:36:05;;;;;;;;;;;;;;;4.42;92.20;98951.95;1806027;78;21079;-76
2021/12/10 12:38:31;;;;;;;;;;;;;;;4.47;92.07;98947.09;1804861;77;20194;-75
2021/12/10 12:41:07;;;;;;;;;;;;;;;4.46;91.84;98931.09;1804190;78;20149;-77
2021/12/10 12:43:33;;;;;;;;;;;;;;;4.46;91.43;98935.83;1797778;78;21141;-78
2021/12/10 12:46:06;;;;;;;;;;;;;;;4.52;91.64;98925.25;1807009;78;21089;-80
2021/12/10 12:48:32;;;;;;;;;;;;;;;4.57;91.57;98929.58;1798424;78;20150;-81
2021/12/10 12:51:02;;;;;;;;;;;;;;;4.54;91.30;98939.48;1800411;78;20160;-79
2021/12/10 12:53:29;;;;;;;;;;;;;;;4.47;91.35;98937.48;1786597;78;20509;-86
2021/12/10 12:55:55;;;;;;;;;;;;;;;4.57;91.24;98923.50;1758096;79;20116;-82
2021/12/10 12:58:25;;;;;;;;;;;;;;;4.45;91.12;98938.59;1779740;78;21124;-84
2021/12/10 13:01:09;;;;;;;;;;;;;;;4.44;91.39;98944.78;1784608;78;20139;-80
2021/12/10 13:03:45;;;;;;;;;;;;;;;4.42;91.33;98946.23;1781922;78;20141;-82
2021/12/10 13:06:20;;;;;;;;;;;;;;;4.40;91.36;98944.26;1804669;78;21066;-80
2021/12/10 13:08:59;;;;;;;;;;;;;;;4.35;91.64;98932.13;1807415;78;20545;-81
2021/12/10 13:11:29;;;;;;;;;;;;;;;4.24;92.14;98926.61;1810732;78;21075;-79
2021/12/10 13:14:13;;;;;;;;;;;;;;;4.24;92.30;98931.84;1808229;77;20159;-80
2021/12/10 13:16:39;;;;;;;;;;;;;;;4.31;92.25;98940.72;1799850;78;20137;-79